| time (UTC) | temp C | wind direction | speed KPH | gust KPH | rain 1hr cm | rain 24hr cm | rain mn cm | humidity % | barometer mb |
| 20260502232003 | 8 | 334 | 1.6 | 4.8 | 0.00 | 0.00 | 0.00 | 49 | 1025.1 |
| 20260502231503 | 8 | 334 | 3.2 | 4.8 | 0.00 | 0.00 | 0.00 | 48 | 1025.2 |
| 20260502231003 | 8 | 334 | 3.2 | 6.4 | 0.00 | 0.00 | 0.00 | 46 | 1025.2 |
| 20260502230717 | 8 | 334 | 3.2 | 6.4 | 0.00 | 0.00 | 0.00 | 46 | 1025.2 |
| 20260502230003 | 8 | 334 | 3.2 | 6.4 | 0.00 | 0.00 | 0.00 | 44 | 1025.2 |
| 20260502225713 | 8 | 334 | 3.2 | 6.4 | 0.00 | 0.00 | 0.00 | 43 | 1025.2 |
| 20260502225003 | 8 | 334 | 4.8 | 6.4 | 0.00 | 0.00 | 0.00 | 44 | 1025.3 |
| 20260502224503 | 8 | 334 | 3.2 | 4.8 | 0.00 | 0.00 | 0.00 | 43 | 1025.3 |
| 20260502224003 | 8 | 359 | 3.2 | 6.4 | 0.00 | 0.00 | 0.00 | 43 | 1025.2 |
| 20260502223503 | 8 | 43 | 3.2 | 6.4 | 0.00 | 0.00 | 0.00 | 42 | 1025.4 |
| 20260502223003 | 7 | 64 | 1.6 | 4.8 | 0.00 | 0.00 | 0.00 | 44 | 1025.4 |
| 20260502222503 | 7 | 74 | 0.0 | 4.8 | 0.00 | 0.00 | 0.00 | 49 | 1025.5 |
| 20260502222003 | 7 | 74 | 0.0 | 1.6 | 0.00 | 0.00 | 0.00 | 49 | 1025.6 |
| 20260502221503 | 7 | 74 | 0.0 | 3.2 | 0.00 | 0.00 | 0.00 | 48 | 1025.6 |
| 20260502221003 | 8 | 74 | 1.6 | 4.8 | 0.00 | 0.00 | 0.00 | 49 | 1025.6 |
| 20260502220503 | 8 | 74 | 3.2 | 4.8 | 0.00 | 0.00 | 0.00 | 49 | 1025.6 |
| 20260502220006 | 8 | 75 | 1.6 | 4.8 | 0.00 | 0.00 | 0.00 | 47 | 1025.7 |
| 20260502215503 | 8 | 74 | 0.0 | 3.2 | 0.00 | 0.00 | 0.00 | 45 | 1025.6 |
| 20260502215003 | 8 | 75 | 1.6 | 6.4 | 0.00 | 0.00 | 0.00 | 43 | 1025.7 |
| 20260502214503 | 8 | 75 | 3.2 | 6.4 | 0.00 | 0.00 | 0.00 | 39 | 1025.6 |
| 20260502214003 | 8 | 75 | 1.6 | 4.8 | 0.00 | 0.00 | 0.00 | 39 | 1025.7 |
| 20260502213503 | 8 | 75 | 3.2 | 4.8 | 0.00 | 0.00 | 0.00 | 38 | 1025.6 |
| 20260502213003 | 8 | 75 | 1.6 | 4.8 | 0.00 | 0.00 | 0.00 | 40 | 1025.5 |
| 20260502212717 | 8 | 75 | 1.6 | 4.8 | 0.00 | 0.00 | 0.00 | 40 | 1025.7 |
| 20260502212004 | 8 | 74 | 3.2 | 6.4 | 0.00 | 0.00 | 0.00 | 43 | 1025.6 |
| 20260502211503 | 8 | 75 | 4.8 | 8.0 | 0.00 | 0.00 | 0.00 | 45 | 1025.6 |
| 20260502211003 | 8 | 71 | 6.4 | 8.0 | 0.00 | 0.00 | 0.00 | 46 | 1025.6 |
| 20260502210713 | 8 | 69 | 6.4 | 8.0 | 0.00 | 0.00 | 0.00 | 48 | 1025.7 |
| 20260502210216 | 8 | 68 | 6.4 | 8.0 | 0.00 | 0.00 | 0.00 | 51 | 1025.8 |
| 20260502205503 | 8 | 76 | 4.8 | 8.0 | 0.00 | 0.00 | 0.00 | 49 | 1025.8 |
| 20260502205003 | 8 | 85 | 4.8 | 6.4 | 0.00 | 0.00 | 0.00 | 51 | 1025.8 |
| 20260502204503 | 8 | 86 | 3.2 | 6.4 | 0.00 | 0.00 | 0.00 | 51 | 1025.8 |
| 20260502204213 | 8 | 86 | 3.2 | 6.4 | 0.00 | 0.00 | 0.00 | 51 | 1026.0 |
| 20260502203503 | 8 | 84 | 4.8 | 11.3 | 0.00 | 0.00 | 0.00 | 53 | 1025.9 |
| 20260502203003 | 7 | 81 | 4.8 | 11.3 | 0.00 | 0.00 | 0.00 | 57 | 1025.9 |
| 20260502202503 | 8 | 75 | 3.2 | 6.4 | 0.00 | 0.00 | 0.00 | 57 | 1026.0 |
| 20260502202003 | 8 | 75 | 4.8 | 8.0 | 0.00 | 0.00 | 0.00 | 58 | 1026.0 |
| 20260502201503 | 8 | 78 | 4.8 | 8.0 | 0.00 | 0.00 | 0.00 | 59 | 1026.0 |
| 20260502201003 | 8 | 77 | 3.2 | 6.4 | 0.00 | 0.00 | 0.00 | 60 | 1026.2 |
| 20260502200503 | 8 | 77 | 3.2 | 8.0 | 0.00 | 0.00 | 0.00 | 61 | 1026.1 |
| 20260502200003 | 8 | 78 | 4.8 | 8.0 | 0.00 | 0.00 | 0.00 | 61 | 1026.1 |
| 20260502195715 | 8 | 80 | 4.8 | 8.0 | 0.00 | 0.00 | 0.00 | 61 | 1026.1 |
| 20260502195003 | 8 | 83 | 3.2 | 6.4 | 0.00 | 0.00 | 0.00 | 64 | 1026.2 |
| 20260502194716 | 8 | 83 | 3.2 | 4.8 | 0.00 | 0.00 | 0.00 | 63 | 1026.1 |
| 20260502194003 | 8 | 78 | 3.2 | 4.8 | 0.00 | 0.00 | 0.00 | 63 | 1026.1 |
| 20260502193503 | 8 | 73 | 3.2 | 4.8 | 0.00 | 0.00 | 0.00 | 64 | 1026.0 |
| 20260502193003 | 8 | 71 | 1.6 | 4.8 | 0.00 | 0.00 | 0.00 | 65 | 1026.0 |
| 20260502192713 | 8 | 71 | 3.2 | 4.8 | 0.00 | 0.00 | 0.00 | 65 | 1025.9 |
| 20260502192003 | 8 | 73 | 4.8 | 6.4 | 0.00 | 0.00 | 0.00 | 67 | 1026.0 |
| 20260502191503 | 8 | 80 | 4.8 | 6.4 | 0.00 | 0.00 | 0.00 | 70 | 1025.9 |
| 20260502191003 | 8 | 80 | 4.8 | 6.4 | 0.00 | 0.00 | 0.00 | 70 | 1026.0 |
| 20260502190503 | 8 | 71 | 3.2 | 6.4 | 0.00 | 0.00 | 0.00 | 70 | 1025.9 |
| 20260502190003 | 8 | 82 | 4.8 | 6.4 | 0.00 | 0.00 | 0.00 | 70 | 1025.9 |
| 20260502185503 | 8 | 93 | 4.8 | 6.4 | 0.00 | 0.00 | 0.00 | 70 | 1025.9 |
| 20260502185003 | 8 | 98 | 3.2 | 6.4 | 0.00 | 0.00 | 0.00 | 69 | 1025.8 |
| 20260502184503 | 8 | 98 | 1.6 | 3.2 | 0.00 | 0.00 | 0.00 | 69 | 1025.8 |
| 20260502184003 | 8 | 98 | 1.6 | 3.2 | 0.00 | 0.00 | 0.00 | 69 | 1025.8 |
| 20260502183503 | 8 | 98 | 1.6 | 3.2 | 0.00 | 0.00 | 0.00 | 69 | 1025.8 |
| 20260502183216 | 8 | 98 | 1.6 | 4.8 | 0.00 | 0.00 | 0.00 | 69 | 1025.7 |
| 20260502182503 | 8 | 98 | 3.2 | 4.8 | 0.00 | 0.00 | 0.00 | 69 | 1025.7 |
| 20260502182003 | 8 | 98 | 3.2 | 4.8 | 0.00 | 0.00 | 0.00 | 69 | 1025.8 |
| 20260502181503 | 8 | 98 | 1.6 | 4.8 | 0.00 | 0.00 | 0.00 | 69 | 1025.8 |
| 20260502181003 | 8 | 0 | 0.0 | 0.0 | 0.00 | 0.00 | 0.00 | 69 | 1025.7 |
| 20260502180503 | 8 | 0 | 0.0 | 0.0 | 0.00 | 0.00 | 0.00 | 68 | 1025.7 |
| 20260502180213 | 8 | 0 | 0.0 | 0.0 | 0.00 | 0.00 | 0.00 | 68 | 1025.7 |
| 20260502170503 | 8 | 89 | 3.2 | 6.4 | 0.00 | 0.00 | 0.00 | 67 | 1025.7 |
| 20260502164003 | 8 | 109 | 3.2 | 6.4 | 0.00 | 0.00 | 0.00 | 66 | 1025.8 |
| 20260502163503 | 9 | 111 | 3.2 | 9.7 | 0.00 | 0.00 | 0.00 | 66 | 1025.8 |
| 20260502163003 | 9 | 114 | 4.8 | 9.7 | 0.00 | 0.00 | 0.00 | 66 | 1025.9 |
| 20260502162503 | 9 | 116 | 3.2 | 8.0 | 0.00 | 0.00 | 0.00 | 66 | 1025.9 |
| 20260502162003 | 9 | 116 | 4.8 | 9.7 | 0.00 | 0.00 | 0.00 | 66 | 1025.9 |
| 20260502161503 | 9 | 121 | 4.8 | 9.7 | 0.00 | 0.00 | 0.00 | 65 | 1026.0 |
| 20260502161003 | 10 | 120 | 4.8 | 8.0 | 0.00 | 0.00 | 0.00 | 65 | 1026.0 |
| 20260502160503 | 10 | 119 | 4.8 | 8.0 | 0.00 | 0.00 | 0.00 | 65 | 1026.0 |
| 20260502152003 | 10 | 100 | 6.4 | 12.9 | 0.00 | 0.00 | 0.00 | 64 | 1026.4 |
| 20260502151503 | 10 | 118 | 6.4 | 12.9 | 0.00 | 0.00 | 0.00 | 64 | 1026.4 |
| 20260502151003 | 10 | 120 | 6.4 | 12.9 | 0.00 | 0.00 | 0.00 | 63 | 1026.4 |
| 20260502150717 | 10 | 114 | 6.4 | 12.9 | 0.00 | 0.00 | 0.00 | 64 | 1026.4 |
| 20260502115503 | 10 | 101 | 8.0 | 17.7 | 0.00 | 0.00 | 0.00 | 62 | 1027.6 |
| 20260502115003 | 10 | 99 | 9.7 | 14.5 | 0.00 | 0.00 | 0.00 | 66 | 1027.6 |
| 20260502114003 | 10 | 118 | 6.4 | 19.3 | 0.00 | 0.00 | 0.00 | 66 | 1027.6 |
| 20260502113503 | 10 | 109 | 8.0 | 19.3 | 0.00 | 0.00 | 0.00 | 64 | 1027.8 |
| 20260502113004 | 10 | 116 | 8.0 | 14.5 | 0.00 | 0.00 | 0.00 | 62 | 1027.8 |
| 20260502112503 | 10 | 116 | 8.0 | 14.5 | 0.00 | 0.00 | 0.00 | 63 | 1027.9 |
| 20260502112004 | 9 | 114 | 8.0 | 17.7 | 0.00 | 0.00 | 0.00 | 64 | 1027.8 |
| 20260502111503 | 9 | 124 | 8.0 | 17.7 | 0.00 | 0.00 | 0.00 | 65 | 1028.0 |
| 20260502111003 | 9 | 112 | 9.7 | 17.7 | 0.00 | 0.00 | 0.00 | 61 | 1028.0 |
| 20260502110503 | 9 | 101 | 8.0 | 17.7 | 0.00 | 0.00 | 0.00 | 65 | 1028.0 |
| 20260502110003 | 9 | 117 | 6.4 | 17.7 | 0.00 | 0.00 | 0.00 | 63 | 1027.9 |
| 20260502105503 | 9 | 105 | 8.0 | 17.7 | 0.00 | 0.00 | 0.00 | 66 | 1028.1 |
| 20260502105003 | 9 | 105 | 9.7 | 17.7 | 0.00 | 0.00 | 0.00 | 65 | 1028.0 |
| 20260502104503 | 9 | 108 | 8.0 | 16.1 | 0.00 | 0.00 | 0.00 | 66 | 1028.1 |
| 20260502104003 | 8 | 105 | 8.0 | 14.5 | 0.00 | 0.00 | 0.00 | 65 | 1028.1 |
| 20260502103503 | 9 | 111 | 8.0 | 14.5 | 0.00 | 0.00 | 0.00 | 64 | 1028.3 |
| 20260502103214 | 9 | 109 | 8.0 | 16.1 | 0.00 | 0.00 | 0.00 | 66 | 1028.1 |
| 20260502102503 | 8 | 114 | 8.0 | 16.1 | 0.00 | 0.00 | 0.00 | 65 | 1028.2 |
| 20260502102215 | 9 | 114 | 8.0 | 16.1 | 0.00 | 0.00 | 0.00 | 66 | 1028.3 |
| 20260502101503 | 8 | 118 | 8.0 | 14.5 | 0.00 | 0.00 | 0.00 | 67 | 1028.4 |
| 20260502101003 | 8 | 115 | 8.0 | 16.1 | 0.00 | 0.00 | 0.00 | 67 | 1028.4 |
| 20260502100503 | 8 | 104 | 9.7 | 17.7 | 0.00 | 0.00 | 0.00 | 66 | 1028.6 |
| 20260502091503 | 7 | 102 | 8.0 | 16.1 | 0.00 | 0.00 | 0.00 | 70 | 1028.7 |
| 20260502091003 | 7 | 104 | 9.7 | 16.1 | 0.00 | 0.00 | 0.00 | 71 | 1028.7 |
| 20260502090503 | 7 | 106 | 9.7 | 16.1 | 0.00 | 0.00 | 0.00 | 71 | 1028.6 |
| 20260502071503 | 6 | 108 | 6.4 | 12.9 | 0.00 | 0.00 | 0.00 | 71 | 1028.6 |
| 20260502071003 | 6 | 112 | 6.4 | 12.9 | 0.00 | 0.00 | 0.00 | 71 | 1028.6 |
| 20260502070503 | 6 | 121 | 4.8 | 11.3 | 0.00 | 0.00 | 0.00 | 71 | 1028.6 |
| 20260502070003 | 6 | 121 | 4.8 | 9.7 | 0.00 | 0.00 | 0.00 | 71 | 1028.5 |
| 20260502065503 | 6 | 109 | 4.8 | 11.3 | 0.00 | 0.00 | 0.00 | 72 | 1028.6 |
| 20260502065003 | 6 | 107 | 4.8 | 11.3 | 0.00 | 0.00 | 0.00 | 71 | 1028.4 |
| 20260502064503 | 6 | 117 | 1.6 | 6.4 | 0.00 | 0.00 | 0.00 | 73 | 1028.5 |
| 20260502064215 | 5 | 121 | 1.6 | 6.4 | 0.00 | 0.00 | 0.00 | 73 | 1028.5 |
| 20260502063503 | 5 | 107 | 1.6 | 4.8 | 0.00 | 0.00 | 0.00 | 72 | 1028.5 |
| 20260502063003 | 6 | 104 | 1.6 | 4.8 | 0.00 | 0.00 | 0.00 | 72 | 1028.6 |
| 20260502062503 | 6 | 96 | 1.6 | 4.8 | 0.00 | 0.00 | 0.00 | 74 | 1028.5 |
| 20260502062003 | 5 | 93 | 1.6 | 4.8 | 0.00 | 0.00 | 0.00 | 73 | 1028.6 |
| 20260502061503 | 5 | 93 | 1.6 | 4.8 | 0.00 | 0.00 | 0.00 | 74 | 1028.5 |
| 20260502061213 | 5 | 93 | 1.6 | 4.8 | 0.00 | 0.00 | 0.00 | 73 | 1028.5 |
| 20260502060503 | 5 | 92 | 1.6 | 4.8 | 0.00 | 0.00 | 0.00 | 74 | 1028.6 |
| 20260502060214 | 5 | 92 | 3.2 | 6.4 | 0.00 | 0.00 | 0.00 | 74 | 1028.6 |
| 20260502055503 | 5 | 94 | 4.8 | 6.4 | 0.00 | 0.00 | 0.00 | 74 | 1028.6 |
| 20260502055003 | 5 | 94 | 4.8 | 6.4 | 0.00 | 0.00 | 0.00 | 76 | 1028.6 |
| 20260502054503 | 4 | 96 | 4.8 | 6.4 | 0.00 | 0.00 | 0.00 | 74 | 1028.6 |
| 20260502054003 | 4 | 100 | 3.2 | 6.4 | 0.00 | 0.00 | 0.00 | 74 | 1028.6 |
| 20260502053503 | 4 | 96 | 4.8 | 6.4 | 0.00 | 0.00 | 0.00 | 74 | 1028.6 |
| 20260502053003 | 4 | 91 | 4.8 | 6.4 | 0.00 | 0.00 | 0.00 | 74 | 1028.6 |
| 20260502052503 | 4 | 88 | 3.2 | 4.8 | 0.00 | 0.00 | 0.00 | 74 | 1028.7 |
| 20260502052003 | 4 | 88 | 1.6 | 4.8 | 0.00 | 0.00 | 0.00 | 75 | 1028.6 |
| 20260502051503 | 3 | 88 | 3.2 | 4.8 | 0.00 | 0.00 | 0.00 | 74 | 1028.6 |
| 20260502051003 | 3 | 88 | 4.8 | 6.4 | 0.00 | 0.00 | 0.00 | 75 | 1028.5 |
| 20260502050717 | 3 | 88 | 4.8 | 6.4 | 0.00 | 0.00 | 0.00 | 75 | 1028.5 |
| 20260502050003 | 3 | 89 | 6.4 | 9.7 | 0.00 | 0.00 | 0.00 | 75 | 1028.5 |
| 20260502045503 | 3 | 89 | 6.4 | 9.7 | 0.00 | 0.00 | 0.00 | 75 | 1028.5 |
| 20260502045003 | 3 | 89 | 6.4 | 11.3 | 0.00 | 0.00 | 0.00 | 76 | 1028.5 |
| 20260502044714 | 3 | 88 | 8.0 | 11.3 | 0.00 | 0.00 | 0.00 | 76 | 1028.5 |
| 20260502044217 | 3 | 89 | 8.0 | 11.3 | 0.00 | 0.00 | 0.00 | 76 | 1028.5 |
| 20260502043503 | 3 | 88 | 6.4 | 11.3 | 0.00 | 0.00 | 0.00 | 76 | 1028.4 |
| 20260502043003 | 3 | 87 | 6.4 | 11.3 | 0.00 | 0.00 | 0.00 | 76 | 1028.6 |
| 20260502042716 | 3 | 87 | 6.4 | 11.3 | 0.00 | 0.00 | 0.00 | 76 | 1028.4 |
| 20260502042003 | 3 | 86 | 4.8 | 8.0 | 0.00 | 0.00 | 0.00 | 76 | 1028.4 |
| 20260502041503 | 3 | 86 | 4.8 | 8.0 | 0.00 | 0.00 | 0.00 | 76 | 1028.4 |
| 20260502041003 | 3 | 86 | 4.8 | 8.0 | 0.00 | 0.00 | 0.00 | 76 | 1028.4 |
| 20260502040503 | 3 | 86 | 4.8 | 6.4 | 0.00 | 0.00 | 0.00 | 75 | 1028.4 |
| 20260502040003 | 3 | 87 | 4.8 | 6.4 | 0.00 | 0.00 | 0.00 | 75 | 1028.3 |
| 20260502035503 | 3 | 88 | 4.8 | 6.4 | 0.00 | 0.00 | 0.00 | 75 | 1028.4 |
| 20260502035003 | 3 | 88 | 4.8 | 6.4 | 0.00 | 0.00 | 0.00 | 75 | 1028.4 |
| 20260502034503 | 3 | 88 | 4.8 | 6.4 | 0.00 | 0.00 | 0.00 | 75 | 1028.4 |
| 20260502034003 | 3 | 88 | 4.8 | 6.4 | 0.00 | 0.00 | 0.00 | 75 | 1028.4 |
| 20260502033503 | 3 | 88 | 4.8 | 6.4 | 0.00 | 0.00 | 0.00 | 75 | 1028.4 |
| 20260502033003 | 3 | 90 | 4.8 | 9.7 | 0.00 | 0.00 | 0.00 | 75 | 1028.3 |
| 20260502032503 | 3 | 93 | 4.8 | 9.7 | 0.00 | 0.00 | 0.00 | 74 | 1028.2 |
| 20260502032003 | 3 | 93 | 4.8 | 6.4 | 0.00 | 0.00 | 0.00 | 75 | 1028.4 |
| 20260502031503 | 3 | 91 | 4.8 | 6.4 | 0.00 | 0.00 | 0.00 | 75 | 1028.4 |
| 20260502031003 | 3 | 90 | 3.2 | 6.4 | 0.00 | 0.00 | 0.00 | 75 | 1028.3 |
| 20260502030503 | 4 | 89 | 3.2 | 6.4 | 0.00 | 0.00 | 0.00 | 74 | 1028.4 |
| 20260502030216 | 4 | 88 | 3.2 | 6.4 | 0.00 | 0.00 | 0.00 | 74 | 1028.4 |
| 20260502025503 | 4 | 89 | 3.2 | 4.8 | 0.00 | 0.00 | 0.00 | 74 | 1028.4 |
| 20260502025003 | 4 | 89 | 3.2 | 4.8 | 0.00 | 0.00 | 0.00 | 73 | 1028.4 |
| 20260502024503 | 4 | 88 | 3.2 | 4.8 | 0.00 | 0.00 | 0.00 | 73 | 1028.4 |
| 20260502024003 | 5 | 88 | 3.2 | 4.8 | 0.00 | 0.00 | 0.00 | 73 | 1028.4 |
| 20260502023503 | 5 | 89 | 1.6 | 3.2 | 0.00 | 0.00 | 0.00 | 73 | 1028.4 |
| 20260502023003 | 5 | 89 | 1.6 | 3.2 | 0.00 | 0.00 | 0.00 | 73 | 1028.5 |
| 20260502022503 | 5 | 89 | 1.6 | 3.2 | 0.00 | 0.00 | 0.00 | 73 | 1028.5 |
| 20260502022003 | 5 | 89 | 1.6 | 3.2 | 0.00 | 0.00 | 0.00 | 73 | 1028.5 |
| 20260502021503 | 5 | 89 | 1.6 | 4.8 | 0.00 | 0.00 | 0.00 | 74 | 1028.6 |
| 20260502021003 | 4 | 89 | 3.2 | 4.8 | 0.00 | 0.00 | 0.00 | 74 | 1028.7 |
| 20260502020503 | 4 | 89 | 3.2 | 4.8 | 0.00 | 0.00 | 0.00 | 74 | 1028.6 |
| 20260502020003 | 4 | 89 | 3.2 | 4.8 | 0.00 | 0.00 | 0.00 | 74 | 1028.6 |
| 20260502015503 | 4 | 89 | 1.6 | 4.8 | 0.00 | 0.00 | 0.00 | 75 | 1028.5 |
| 20260502015003 | 4 | 89 | 3.2 | 4.8 | 0.00 | 0.00 | 0.00 | 75 | 1028.6 |
| 20260502014716 | 4 | 89 | 3.2 | 4.8 | 0.00 | 0.00 | 0.00 | 75 | 1028.6 |
| 20260502014003 | 4 | 89 | 4.8 | 8.0 | 0.00 | 0.00 | 0.00 | 76 | 1028.6 |
| 20260502013503 | 5 | 89 | 4.8 | 8.0 | 0.00 | 0.00 | 0.00 | 75 | 1028.6 |
| 20260502013003 | 5 | 90 | 4.8 | 9.7 | 0.00 | 0.00 | 0.00 | 75 | 1028.6 |
| 20260502012503 | 5 | 90 | 6.4 | 9.7 | 0.00 | 0.00 | 0.00 | 75 | 1028.7 |
| 20260502012003 | 5 | 88 | 4.8 | 9.7 | 0.00 | 0.00 | 0.00 | 74 | 1028.6 |
| 20260502011503 | 5 | 89 | 6.4 | 11.3 | 0.00 | 0.00 | 0.00 | 75 | 1028.7 |
| 20260502011216 | 5 | 89 | 8.0 | 12.9 | 0.00 | 0.00 | 0.00 | 75 | 1028.6 |
| 20260502010714 | 5 | 92 | 8.0 | 12.9 | 0.00 | 0.00 | 0.00 | 75 | 1028.6 |
| 20260502010003 | 5 | 87 | 11.3 | 16.1 | 0.00 | 0.00 | 0.00 | 75 | 1028.7 |
| 20260502005503 | 5 | 86 | 11.3 | 16.1 | 0.00 | 0.00 | 0.00 | 75 | 1028.6 |
| 20260502005003 | 5 | 90 | 11.3 | 14.5 | 0.00 | 0.00 | 0.00 | 75 | 1028.6 |
| 20260502004503 | 5 | 93 | 11.3 | 14.5 | 0.00 | 0.00 | 0.00 | 75 | 1028.7 |
| 20260502004003 | 5 | 91 | 11.3 | 16.1 | 0.00 | 0.00 | 0.00 | 75 | 1028.7 |
| 20260502003717 | 5 | 90 | 11.3 | 16.1 | 0.00 | 0.00 | 0.00 | 75 | 1028.7 |
| 20260502003003 | 5 | 87 | 9.7 | 14.5 | 0.00 | 0.00 | 0.00 | 74 | 1028.7 |
| 20260502002503 | 5 | 90 | 9.7 | 14.5 | 0.00 | 0.00 | 0.00 | 74 | 1028.8 |
| 20260502002003 | 5 | 89 | 12.9 | 17.7 | 0.00 | 0.00 | 0.00 | 74 | 1028.8 |
| 20260502001714 | 5 | 85 | 12.9 | 17.7 | 0.00 | 0.00 | 0.00 | 74 | 1028.8 |
| 20260502001003 | 5 | 87 | 12.9 | 16.1 | 0.00 | 0.00 | 0.00 | 75 | 1028.8 |
| 20260502000503 | 5 | 93 | 11.3 | 16.1 | 0.00 | 0.00 | 0.00 | 74 | 1028.8 |
| 20260502000004 | 5 | 94 | 11.3 | 14.5 | 0.00 | 0.00 | 0.00 | 74 | 1028.9 |
| 20260501235503 | 5 | 93 | 11.3 | 14.5 | 0.00 | 0.00 | 0.00 | 74 | 1028.8 |
| 20260501235003 | 5 | 94 | 9.7 | 14.5 | 0.00 | 0.00 | 0.00 | 74 | 1028.8 |
| 20260501234503 | 5 | 95 | 8.0 | 16.1 | 0.00 | 0.00 | 0.00 | 74 | 1028.9 |
| 20260501234003 | 6 | 92 | 9.7 | 16.1 | 0.00 | 0.00 | 0.00 | 73 | 1028.8 |
| 20260501233503 | 6 | 88 | 11.3 | 16.1 | 0.00 | 0.00 | 0.00 | 73 | 1028.8 |
| 20260501233003 | 6 | 84 | 12.9 | 16.1 | 0.00 | 0.00 | 0.00 | 73 | 1028.8 |
| 20260501232503 | 6 | 85 | 11.3 | 14.5 | 0.00 | 0.00 | 0.00 | 73 | 1028.9 |